Time;durP1;ratioP1;P1;durP2;ratioP2;P2;SDS_P1;SDS_P2;PMS_P1;PMS_P2;Temp;Humidity;BMP_temperature;BMP_pressure;BME280_temperature;BME280_humidity;BME280_pressure;Samples;Min_cycle;Max_cycle;Signal;HPM_P1;HPM_P2
2023/11/25 00:00:50;;;;;;;3.35;1.50;;;;;;;2.26;84.29;96912.22;4967769;28;20541;-71
2023/11/25 00:03:15;;;;;;;1.58;1.30;;;;;;;2.28;84.61;96942.84;4968321;28;20479;-73
2023/11/25 00:05:41;;;;;;;2.85;1.45;;;;;;;2.39;83.81;96936.75;4953813;28;20113;-72
2023/11/25 00:08:07;;;;;;;1.48;1.15;;;;;;;2.35;82.99;96946.22;4983667;28;20611;-71
2023/11/25 00:10:33;;;;;;;2.95;1.50;;;;;;;2.31;83.08;96923.78;4986529;28;20042;-71
2023/11/25 00:12:58;;;;;;;2.85;1.30;;;;;;;2.18;83.32;96920.47;4967486;28;20018;-70
2023/11/25 00:15:24;;;;;;;2.33;1.30;;;;;;;2.49;82.26;96958.31;4979863;28;20034;-71
2023/11/25 00:17:53;;;;;;;1.45;1.23;;;;;;;2.47;82.42;96955.06;4963403;28;20025;-70
2023/11/25 00:20:22;;;;;;;1.85;1.30;;;;;;;2.50;81.65;96962.56;4980321;28;20035;-70
2023/11/25 00:22:48;;;;;;;2.80;1.52;;;;;;;2.42;81.74;96962.88;4981865;28;20027;-71
2023/11/25 00:25:15;;;;;;;1.50;1.25;;;;;;;2.38;82.17;96977.63;4961347;28;20125;-72
2023/11/25 00:27:40;;;;;;;3.10;1.40;;;;;;;2.40;81.84;96969.47;4963110;28;20498;-72
2023/11/25 00:30:09;;;;;;;4.15;1.50;;;;;;;2.44;81.15;96984.72;4964052;28;20038;-72
2023/11/25 00:32:37;;;;;;;2.88;1.30;;;;;;;2.31;81.35;96968.13;4985329;28;20035;-72
2023/11/25 00:35:07;;;;;;;2.67;1.30;;;;;;;2.44;80.00;97005.97;4974489;28;20038;-71
2023/11/25 00:37:33;;;;;;;1.50;1.30;;;;;;;2.16;81.33;96987.09;4969067;28;20505;-71
2023/11/25 00:40:04;;;;;;;1.90;1.30;;;;;;;2.37;81.68;96999.94;4964481;28;20030;-72
2023/11/25 00:42:29;;;;;;;3.05;1.55;;;;;;;2.32;80.87;97010.41;4966616;28;20065;-74
2023/11/25 00:44:55;;;;;;;4.50;1.45;;;;;;;2.40;81.23;97010.13;4979616;28;20027;-74
2023/11/25 00:47:22;;;;;;;3.00;1.40;;;;;;;2.31;80.44;97032.66;4980027;28;20042;-74
2023/11/25 00:49:49;;;;;;;4.72;1.60;;;;;;;2.25;79.90;97016.81;4976230;28;20054;-74
2023/11/25 00:52:15;;;;;;;3.63;1.20;;;;;;;2.30;80.08;97028.41;4971683;28;20046;-74
2023/11/25 00:54:40;;;;;;;2.97;1.55;;;;;;;2.33;79.85;97025.31;4959787;28;20030;-71
2023/11/25 00:57:06;;;;;;;1.83;1.20;;;;;;;2.43;80.13;97046.03;4964335;28;20038;-71
2023/11/25 00:59:32;;;;;;;2.15;1.10;;;;;;;2.28;80.74;97067.66;4978572;28;20022;-71
2023/11/25 01:01:57;;;;;;;1.90;1.20;;;;;;;2.42;79.80;97071.81;4964605;28;20045;-72
2023/11/25 01:04:23;;;;;;;3.75;1.50;;;;;;;2.46;79.25;97075.63;4956807;28;20027;-73
2023/11/25 01:06:49;;;;;;;2.78;1.33;;;;;;;2.39;79.40;97072.25;4983959;28;20113;-72
2023/11/25 01:09:16;;;;;;;3.60;1.48;;;;;;;2.40;79.95;97087.16;4977973;28;20139;-73
2023/11/25 01:11:45;;;;;;;2.85;1.50;;;;;;;2.35;79.13;97073.72;4960491;28;20106;-72
2023/11/25 01:14:11;;;;;;;2.70;1.30;;;;;;;2.38;80.13;97097.16;4963332;28;20364;-74
2023/11/25 01:16:37;;;;;;;5.53;1.40;;;;;;;2.29;80.86;97090.53;4957448;28;20117;-72
2023/11/25 01:19:02;;;;;;;2.25;1.45;;;;;;;2.22;81.15;97103.06;4971182;28;20098;-71
2023/11/25 01:21:29;;;;;;;2.35;1.30;;;;;;;2.28;80.39;97107.50;4979538;28;20031;-71
2023/11/25 01:23:55;;;;;;;3.08;1.40;;;;;;;2.19;81.11;97127.41;4975235;28;20073;-71
2023/11/25 01:26:22;;;;;;;2.60;1.38;;;;;;;2.20;80.56;97121.06;4983145;28;20041;-71
2023/11/25 01:28:47;;;;;;;2.53;1.40;;;;;;;2.14;80.56;97126.44;4974993;28;20030;-72
2023/11/25 01:31:14;;;;;;;1.75;1.40;;;;;;;2.23;81.31;97147.19;4985048;28;20380;-72
2023/11/25 01:33:40;;;;;;;1.67;1.38;;;;;;;2.31;80.88;97138.91;4975789;28;20037;-71
2023/11/25 01:36:09;;;;;;;3.53;1.38;;;;;;;2.21;81.85;97138.63;4979143;28;20407;-71
2023/11/25 01:38:35;;;;;;;2.80;1.50;;;;;;;2.29;81.22;97151.59;4946244;28;20026;-70
2023/11/25 01:41:01;;;;;;;2.83;1.50;;;;;;;2.26;80.90;97162.69;4985966;28;20046;-71
2023/11/25 01:43:27;;;;;;;1.95;1.60;;;;;;;2.30;81.13;97163.88;4975204;28;20555;-72
2023/11/25 01:45:55;;;;;;;3.15;1.40;;;;;;;2.18;80.75;97157.63;4949095;28;20041;-71
2023/11/25 01:48:22;;;;;;;3.28;1.70;;;;;;;2.24;80.89;97172.69;4952529;28;20042;-71
2023/11/25 01:50:48;;;;;;;1.85;1.50;;;;;;;2.15;81.38;97175.88;4976232;28;20038;-72
2023/11/25 01:53:20;;;;;;;3.70;1.63;;;;;;;1.98;81.29;97175.56;4964789;28;20030;-74
2023/11/25 01:55:47;;;;;;;4.05;1.80;;;;;;;2.07;81.29;97180.41;4954486;28;20042;-71
2023/11/25 01:58:15;;;;;;;3.00;1.95;;;;;;;1.89;81.47;97164.38;4976130;28;20022;-72
2023/11/25 02:00:45;;;;;;;4.63;1.80;;;;;;;1.98;81.57;97207.44;4975327;28;20058;-70
2023/11/25 02:03:14;;;;;;;6.72;1.90;;;;;;;1.90;81.90;97199.72;4973732;28;20041;-72
2023/11/25 02:05:39;;;;;;;2.85;1.60;;;;;;;1.97;80.64;97206.63;4972192;28;20026;-71
2023/11/25 02:08:09;;;;;;;2.92;1.83;;;;;;;1.96;81.73;97209.50;4945281;28;20037;-71
2023/11/25 02:10:34;;;;;;;3.28;1.85;;;;;;;1.85;81.82;97175.66;4981627;28;20046;-72
2023/11/25 02:13:02;;;;;;;3.13;1.77;;;;;;;1.95;81.51;97205.19;4962596;28;20035;-72
2023/11/25 02:15:32;;;;;;;4.90;2.30;;;;;;;1.93;82.10;97220.53;4974148;28;20092;-74
2023/11/25 02:17:57;;;;;;;4.13;1.75;;;;;;;1.87;82.74;97210.75;4962920;28;20069;-74
2023/11/25 02:20:36;;;;;;;2.75;1.65;;;;;;;1.90;81.95;97210.34;4957431;28;20436;-72
2023/11/25 02:23:02;;;;;;;4.88;1.80;;;;;;;1.83;82.65;97225.47;4942797;28;20027;-73
2023/11/25 02:25:28;;;;;;;4.50;1.98;;;;;;;1.85;83.03;97226.06;4942039;28;20460;-74
2023/11/25 02:27:55;;;;;;;3.55;2.08;;;;;;;1.83;83.08;97230.78;4942918;29;20030;-73
2023/11/25 02:30:23;;;;;;;3.42;1.60;;;;;;;1.86;82.41;97235.69;4941086;28;20523;-73
2023/11/25 02:32:53;;;;;;;3.50;1.70;;;;;;;1.92;82.30;97242.78;4980238;28;20039;-74
2023/11/25 02:35:20;;;;;;;4.70;1.67;;;;;;;1.81;82.51;97241.63;4961104;28;20047;-73
2023/11/25 02:37:45;;;;;;;4.88;1.63;;;;;;;1.86;81.81;97243.66;4959261;28;20125;-75
2023/11/25 02:40:17;;;;;;;3.90;1.90;;;;;;;1.84;82.24;97237.75;4975152;28;20077;-73
2023/11/25 02:42:47;;;;;;;4.00;1.80;;;;;;;1.99;81.81;97262.13;4955809;28;20031;-72
2023/11/25 02:45:22;;;;;;;4.35;1.77;;;;;;;1.95;82.39;97266.25;4943398;28;20042;-72
2023/11/25 02:47:48;;;;;;;6.03;1.90;;;;;;;1.92;81.61;97256.06;4957585;28;20077;-73
2023/11/25 02:50:14;;;;;;;3.65;1.80;;;;;;;1.94;81.93;97264.63;4957292;28;20033;-72
2023/11/25 02:52:40;;;;;;;5.47;2.00;;;;;;;2.00;81.81;97280.53;4977625;28;20030;-73
2023/11/25 02:55:07;;;;;;;6.20;2.15;;;;;;;1.90;81.62;97260.75;4959692;28;20018;-73
2023/11/25 02:57:32;;;;;;;4.32;1.98;;;;;;;1.94;81.30;97269.91;4960134;28;20046;-74
2023/11/25 03:00:01;;;;;;;5.18;1.83;;;;;;;1.87;81.17;97269.97;4974423;28;20030;-75
2023/11/25 03:02:27;;;;;;;4.70;2.47;;;;;;;1.96;81.12;97287.28;4956436;28;20125;-71
2023/11/25 03:04:53;;;;;;;3.40;2.00;;;;;;;2.05;80.22;97295.81;4939101;28;20101;-73
2023/11/25 03:07:19;;;;;;;7.95;2.05;;;;;;;2.04;79.92;97296.84;4972634;28;20038;-73
2023/11/25 03:09:44;;;;;;;3.30;1.90;;;;;;;2.02;79.70;97285.63;4979770;28;20478;-72
2023/11/25 03:12:10;;;;;;;3.53;1.98;;;;;;;2.07;80.35;97301.72;4966118;28;20046;-75
2023/11/25 03:14:35;;;;;;;5.22;2.20;;;;;;;1.92;79.76;97293.22;4961515;28;20109;-75
2023/11/25 03:17:01;;;;;;;3.30;2.00;;;;;;;1.75;79.90;97303.50;4942726;28;20042;-74
2023/11/25 03:19:26;;;;;;;4.50;2.08;;;;;;;1.81;79.88;97323.09;4972612;28;20022;-75
2023/11/25 03:21:55;;;;;;;5.00;1.85;;;;;;;1.88;79.65;97324.69;4975796;28;20098;-75
2023/11/25 03:24:24;;;;;;;4.38;1.92;;;;;;;1.91;79.02;97334.06;4975677;28;20042;-74
2023/11/25 03:26:50;;;;;;;6.22;2.00;;;;;;;1.84;78.38;97322.69;4961322;28;20047;-75
2023/11/25 03:29:18;;;;;;;3.85;2.10;;;;;;;1.80;78.08;97332.06;4958116;28;20510;-72
2023/11/25 03:31:44;;;;;;;5.53;2.03;;;;;;;1.71;78.46;97317.41;4972707;28;20046;-73
2023/11/25 03:34:09;;;;;;;2.50;1.70;;;;;;;1.83;77.46;97343.09;4958321;28;20018;-72
2023/11/25 03:36:35;;;;;;;3.03;2.00;;;;;;;1.82;76.95;97322.88;4963408;28;20041;-73
2023/11/25 03:39:02;;;;;;;3.97;2.15;;;;;;;1.81;76.56;97349.63;4959335;28;20502;-71
2023/11/25 03:41:30;;;;;;;6.35;2.20;;;;;;;1.81;77.00;97344.31;4959632;28;20062;-72
2023/11/25 03:43:55;;;;;;;5.40;1.80;;;;;;;1.76;76.30;97336.16;4975971;28;20599;-71
2023/11/25 03:46:23;;;;;;;4.82;1.63;;;;;;;1.80;75.55;97353.28;4941337;28;20169;-72
2023/11/25 03:48:50;;;;;;;4.43;2.10;;;;;;;1.83;75.65;97358.19;4974091;28;20692;-71
2023/11/25 03:51:15;;;;;;;4.20;1.90;;;;;;;1.58;76.04;97334.19;4955319;28;20038;-71
2023/11/25 03:53:40;;;;;;;3.50;1.88;;;;;;;1.60;75.99;97339.28;4956724;28;20037;-73
2023/11/25 03:56:06;;;;;;;3.90;1.80;;;;;;;1.60;75.57;97336.63;4959410;28;20097;-71
2023/11/25 03:58:31;;;;;;;4.85;2.15;;;;;;;1.66;74.87;97346.41;4942519;28;20023;-72
2023/11/25 04:00:57;;;;;;;3.55;1.85;;;;;;;1.58;75.34;97349.28;4964263;28;20050;-73
2023/11/25 04:03:22;;;;;;;7.90;2.25;;;;;;;1.45;75.13;97338.72;4974463;28;20071;-71
2023/11/25 04:05:48;;;;;;;4.30;1.80;;;;;;;1.56;74.80;97357.47;4976324;28;20578;-73
2023/11/25 04:08:13;;;;;;;4.88;1.65;;;;;;;1.49;74.72;97355.84;4964614;28;20139;-72
2023/11/25 04:10:38;;;;;;;3.20;2.00;;;;;;;1.46;74.93;97356.25;4960360;28;20039;-72
2023/11/25 04:13:04;;;;;;;6.47;2.15;;;;;;;1.54;75.23;97374.63;4982044;28;20029;-73
2023/11/25 04:15:29;;;;;;;4.30;1.77;;;;;;;1.33;75.40;97352.59;4976551;28;20101;-73
2023/11/25 04:17:54;;;;;;;4.30;2.08;;;;;;;1.51;75.39;97380.34;4977740;28;20430;-72
2023/11/25 04:20:24;;;;;;;4.53;2.33;;;;;;;1.52;74.33;97381.97;4977264;28;20051;-72
2023/11/25 04:22:50;;;;;;;4.65;2.60;;;;;;;1.50;74.75;97394.59;4983628;28;20026;-73
2023/11/25 04:25:15;;;;;;;6.10;3.03;;;;;;;1.46;74.63;97388.09;4963883;28;20113;-73
2023/11/25 04:27:48;;;;;;;7.55;2.90;;;;;;;1.33;74.43;97381.78;4963741;28;20101;-73
2023/11/25 04:30:15;;;;;;;5.13;2.17;;;;;;;1.34;74.97;97386.06;4979529;28;20035;-73
2023/11/25 04:32:42;;;;;;;7.20;2.78;;;;;;;1.42;74.55;97393.81;4977692;28;20050;-73
2023/11/25 04:35:08;;;;;;;4.07;2.40;;;;;;;1.36;74.77;97397.28;4963084;28;20038;-73
2023/11/25 04:37:34;;;;;;;5.65;2.58;;;;;;;1.35;74.20;97408.91;4941187;28;20041;-72
2023/11/25 04:40:00;;;;;;;4.18;2.40;;;;;;;1.30;75.27;97407.91;4958490;28;20030;-72
2023/11/25 04:42:26;;;;;;;5.65;2.15;;;;;;;1.28;75.33;97417.91;4965738;28;20374;-72
2023/11/25 04:44:52;;;;;;;4.43;2.00;;;;;;;1.32;74.09;97419.94;4959249;28;20039;-73
2023/11/25 04:47:18;;;;;;;7.30;2.50;;;;;;;1.26;74.65;97415.44;4979312;28;20097;-72
2023/11/25 04:49:43;;;;;;;6.70;2.78;;;;;;;1.36;75.25;97431.78;4957825;28;20038;-72
2023/11/25 04:52:08;;;;;;;4.07;1.83;;;;;;;1.30;75.10;97432.59;4979991;28;20027;-72
2023/11/25 04:54:34;;;;;;;8.02;2.35;;;;;;;1.36;75.29;97442.38;4939132;28;20121;-74
2023/11/25 04:57:01;;;;;;;8.05;2.38;;;;;;;1.31;73.88;97428.91;4985804;28;20022;-73
2023/11/25 04:59:27;;;;;;;4.25;2.00;;;;;;;1.38;73.86;97423.59;4974463;28;20114;-74
2023/11/25 05:01:52;;;;;;;5.38;2.17;;;;;;;1.36;74.88;97430.94;4982303;28;20531;-71
2023/11/25 05:04:17;;;;;;;3.67;1.83;;;;;;;1.48;74.27;97436.44;4975214;28;20035;-71
2023/11/25 05:06:43;;;;;;;4.63;1.85;;;;;;;1.45;74.47;97434.22;4977155;28;20034;-72
2023/11/25 05:09:13;;;;;;;6.07;2.22;;;;;;;1.40;73.17;97411.75;4962975;28;20499;-73
2023/11/25 05:11:41;;;;;;;5.88;2.03;;;;;;;1.50;73.95;97426.44;4977622;28;20049;-71
2023/11/25 05:14:07;;;;;;;5.03;1.80;;;;;;;1.61;74.12;97452.38;4979919;28;20023;-69
2023/11/25 05:16:32;;;;;;;6.15;2.20;;;;;;;1.53;73.56;97431.34;4976870;28;20046;-70
2023/11/25 05:18:57;;;;;;;4.93;2.10;;;;;;;1.60;74.22;97454.19;4963693;28;20026;-70
2023/11/25 05:21:23;;;;;;;6.32;1.90;;;;;;;1.49;74.62;97446.06;4979916;28;20034;-70
2023/11/25 05:23:49;;;;;;;6.22;1.85;;;;;;;1.52;74.07;97461.56;4969015;28;20125;-69
2023/11/25 05:26:15;;;;;;;4.70;2.15;;;;;;;1.56;73.71;97465.44;4982971;28;20545;-71
2023/11/25 05:28:40;;;;;;;6.05;2.65;;;;;;;1.36;74.39;97437.06;4976494;28;20077;-73
2023/11/25 05:31:06;;;;;;;6.43;3.17;;;;;;;1.36;73.52;97447.69;4965062;28;20542;-72
2023/11/25 05:33:33;;;;;;;4.95;3.35;;;;;;;1.38;73.09;97448.28;4984102;28;20106;-72
2023/11/25 05:35:59;;;;;;;6.20;2.50;;;;;;;1.37;74.32;97454.63;4967064;28;20130;-71
2023/11/25 05:38:25;;;;;;;4.78;3.67;;;;;;;1.32;74.21;97465.03;4986717;28;20026;-72
2023/11/25 05:40:52;;;;;;;13.02;8.77;;;;;;;1.30;73.98;97475.03;4979049;28;20097;-71
2023/11/25 05:43:18;;;;;;;6.47;2.45;;;;;;;1.29;74.22;97473.38;4959980;28;20040;-71
2023/11/25 05:45:44;;;;;;;8.63;6.15;;;;;;;1.39;73.78;97486.25;4964195;28;20093;-70
2023/11/25 05:48:10;;;;;;;4.82;2.58;;;;;;;1.36;73.06;97473.38;4974062;28;20030;-70
2023/11/25 05:50:36;;;;;;;6.13;2.05;;;;;;;1.39;73.97;97476.47;4983631;28;20038;-70
2023/11/25 05:53:02;;;;;;;5.20;4.70;;;;;;;1.36;73.56;97484.81;4962312;28;20391;-69
2023/11/25 05:55:27;;;;;;;4.90;2.33;;;;;;;1.36;73.38;97479.50;4964884;28;20051;-69
2023/11/25 05:57:52;;;;;;;4.40;1.90;;;;;;;1.24;73.59;97465.22;4980889;28;20023;-71
2023/11/25 06:00:19;;;;;;;3.08;2.13;;;;;;;1.28;73.87;97477.03;4979727;28;20045;-68
2023/11/25 06:02:44;;;;;;;3.83;1.95;;;;;;;1.27;74.17;97485.22;4960435;28;20026;-71
2023/11/25 06:05:10;;;;;;;5.43;2.42;;;;;;;1.29;74.17;97497.25;4962422;28;20070;-69
2023/11/25 06:07:35;;;;;;;3.85;2.28;;;;;;;1.20;73.73;97495.81;4973455;28;20460;-70
2023/11/25 06:10:03;;;;;;;9.27;2.58;;;;;;;1.02;74.33;97465.63;4967459;28;20038;-70
2023/11/25 06:12:29;;;;;;;4.57;2.40;;;;;;;1.18;74.43;97503.16;4961810;28;20027;-71
2023/11/25 06:14:55;;;;;;;4.88;2.60;;;;;;;1.11;74.48;97507.66;4963543;28;20038;-69
2023/11/25 06:17:24;;;;;;;5.72;2.47;;;;;;;1.12;75.22;97509.25;4977537;28;20042;-69
2023/11/25 06:19:51;;;;;;;5.72;2.20;;;;;;;1.08;75.24;97510.69;4951748;28;20035;-70
2023/11/25 06:22:17;;;;;;;5.10;2.53;;;;;;;0.95;74.67;97502.72;4960721;28;20023;-70
2023/11/25 06:24:43;;;;;;;4.85;2.38;;;;;;;1.01;74.74;97501.91;4982739;28;20039;-70
2023/11/25 06:27:08;;;;;;;10.02;4.03;;;;;;;0.94;74.26;97490.47;4962171;28;20026;-70
2023/11/25 06:29:33;;;;;;;12.93;6.03;;;;;;;1.01;75.20;97493.13;4977849;28;20519;-70
2023/11/25 06:31:59;;;;;;;20.50;18.40;;;;;;;1.05;74.59;97505.00;4979963;28;20157;-70
2023/11/25 06:34:24;;;;;;;19.33;17.13;;;;;;;0.89;74.54;97471.72;4979673;28;20034;-71
2023/11/25 06:36:50;;;;;;;8.80;5.22;;;;;;;1.03;74.46;97483.16;4981250;28;20105;-71
2023/11/25 06:39:19;;;;;;;9.15;5.82;;;;;;;1.10;74.07;97490.09;4982948;28;20045;-72
2023/11/25 06:41:53;;;;;;;4.55;3.25;;;;;;;0.99;74.02;97481.91;4942513;28;20022;-72
2023/11/25 06:44:20;;;;;;;6.60;4.65;;;;;;;0.94;74.38;97479.06;4946767;28;20092;-72
2023/11/25 06:46:46;;;;;;;12.32;7.68;;;;;;;0.96;75.30;97488.44;4976108;28;20022;-72
2023/11/25 06:49:13;;;;;;;15.98;14.13;;;;;;;1.04;74.84;97490.91;4967217;28;20602;-71
2023/11/25 06:51:40;;;;;;;25.45;16.42;;;;;;;1.09;74.21;97493.78;4960478;28;20022;-72
2023/11/25 06:54:05;;;;;;;56.05;35.20;;;;;;;1.05;74.74;97471.31;4961101;28;20034;-73
2023/11/25 06:56:33;;;;;;;77.63;48.30;;;;;;;1.10;75.38;97474.19;4977299;28;20499;-74
2023/11/25 06:58:58;;;;;;;86.65;56.45;;;;;;;1.12;74.96;97485.41;4963506;28;20035;-72
2023/11/25 07:01:24;;;;;;;35.45;23.77;;;;;;;1.19;74.39;97488.88;4961243;28;20072;-73
2023/11/25 07:03:50;;;;;;;47.03;31.23;;;;;;;1.23;74.25;97490.13;4972664;28;20031;-72
2023/11/25 07:06:17;;;;;;;29.67;19.90;;;;;;;1.23;75.06;97495.44;4964043;28;20100;-70
2023/11/25 07:08:46;;;;;;;33.72;24.58;;;;;;;1.26;74.71;97505.63;4960546;28;20388;-71
2023/11/25 07:11:13;;;;;;;29.77;18.60;;;;;;;1.13;75.34;97484.41;4966937;28;20417;-73
2023/11/25 07:13:39;;;;;;;15.38;11.68;;;;;;;1.20;75.87;97495.00;4977734;28;20058;-70
2023/11/25 07:16:06;;;;;;;8.18;5.72;;;;;;;1.30;75.19;97511.34;4975975;28;20487;-72
2023/11/25 07:18:32;;;;;;;10.73;4.68;;;;;;;1.28;75.68;97503.56;4963299;28;20030;-72
2023/11/25 07:20:59;;;;;;;6.03;3.95;;;;;;;1.29;75.01;97509.69;4960084;28;20055;-72
2023/11/25 07:23:24;;;;;;;10.52;6.63;;;;;;;1.24;75.89;97491.75;4982549;28;20096;-73
2023/11/25 07:25:50;;;;;;;35.47;26.70;;;;;;;1.32;75.81;97507.47;4957969;28;20482;-73
2023/11/25 07:28:15;;;;;;;9.20;5.32;;;;;;;1.15;76.38;97500.91;4976925;28;20050;-73
2023/11/25 07:30:41;;;;;;;4.72;2.63;;;;;;;1.19;76.15;97509.28;4961983;28;20538;-74
2023/11/25 07:33:08;;;;;;;4.35;2.58;;;;;;;1.24;77.23;97518.25;4962106;28;20110;-73
2023/11/25 07:35:33;;;;;;;7.65;3.40;;;;;;;1.33;76.20;97519.69;4961920;28;20410;-74
2023/11/25 07:37:59;;;;;;;9.85;4.82;;;;;;;1.41;76.66;97518.69;4962633;28;20042;-73
2023/11/25 07:40:24;;;;;;;6.50;4.60;;;;;;;1.49;76.25;97525.63;4951515;28;20022;-74
2023/11/25 07:42:50;;;;;;;12.50;8.02;;;;;;;1.46;76.24;97515.41;4981340;28;20089;-73
2023/11/25 07:45:16;;;;;;;10.93;7.55;;;;;;;1.58;76.10;97537.69;4968863;28;20028;-73
2023/11/25 07:47:43;;;;;;;15.02;7.68;;;;;;;1.62;77.00;97533.59;4980727;28;20050;-70
2023/11/25 07:50:10;;;;;;;9.35;5.40;;;;;;;1.67;76.55;97545.22;4959995;28;20486;-70
2023/11/25 07:52:35;;;;;;;8.80;5.03;;;;;;;1.59;76.12;97532.16;4965770;28;20798;-70
2023/11/25 07:55:01;;;;;;;7.93;4.82;;;;;;;1.76;76.39;97545.84;4980312;28;20066;-71
2023/11/25 07:57:26;;;;;;;7.28;4.97;;;;;;;1.71;76.80;97543.78;4984098;28;20396;-70
2023/11/25 07:59:52;;;;;;;8.50;4.93;;;;;;;1.78;76.13;97525.22;4963527;28;20022;-70
2023/11/25 08:02:18;;;;;;;9.23;3.75;;;;;;;1.76;76.36;97524.59;4962757;28;20035;-71
2023/11/25 08:04:44;;;;;;;8.20;4.75;;;;;;;1.63;76.75;97532.59;4963411;28;20035;-72
2023/11/25 08:07:11;;;;;;;10.40;5.20;;;;;;;1.61;77.58;97529.31;4980444;28;20050;-71
2023/11/25 08:09:37;;;;;;;6.70;3.28;;;;;;;1.68;76.68;97535.44;4966789;28;20402;-70
2023/11/25 08:12:03;;;;;;;7.47;3.63;;;;;;;1.70;77.28;97523.59;4986172;28;20042;-71
2023/11/25 08:14:29;;;;;;;8.23;3.67;;;;;;;1.42;77.25;97477.06;4982749;28;20030;-71
2023/11/25 08:16:55;;;;;;;8.32;4.05;;;;;;;1.83;77.44;97541.34;4980041;28;20035;-69
2023/11/25 08:19:24;;;;;;;7.93;5.82;;;;;;;1.86;77.12;97548.91;4944218;28;20022;-70
2023/11/25 08:21:49;;;;;;;9.10;4.50;;;;;;;1.93;77.00;97550.53;4963588;28;20458;-71
2023/11/25 08:24:17;;;;;;;6.57;4.15;;;;;;;1.95;76.85;97551.16;4968829;28;20022;-72
2023/11/25 08:26:43;;;;;;;6.32;3.78;;;;;;;1.90;77.14;97535.00;4957009;28;20043;-72
2023/11/25 08:29:08;;;;;;;11.63;8.15;;;;;;;2.00;77.22;97539.91;4946389;28;20033;-72
2023/11/25 08:31:34;;;;;;;13.20;7.07;;;;;;;2.03;76.95;97539.50;4982361;28;20128;-72
2023/11/25 08:34:09;;;;;;;9.05;5.00;;;;;;;2.16;77.45;97544.78;4961297;28;20065;-71
2023/11/25 08:36:44;;;;;;;8.88;4.93;;;;;;;2.16;78.30;97558.06;4959530;28;20081;-70
2023/11/25 08:39:13;;;;;;;6.88;4.38;;;;;;;2.20;77.53;97551.31;4968174;28;20031;-71
2023/11/25 08:41:43;;;;;;;9.90;4.70;;;;;;;2.16;77.13;97528.84;4976566;28;20030;-71
2023/11/25 08:44:14;;;;;;;10.13;5.65;;;;;;;2.34;77.74;97541.44;4982050;28;20146;-71
2023/11/25 08:46:42;;;;;;;42.40;25.67;;;;;;;2.44;78.47;97547.16;4975568;28;20045;-72
2023/11/25 08:49:11;;;;;;;27.83;17.95;;;;;;;2.46;78.05;97542.44;4961365;28;20118;-72
2023/11/25 08:51:41;;;;;;;17.35;9.55;;;;;;;2.44;77.79;97537.34;4979207;28;20030;-71
2023/11/25 08:54:06;;;;;;;12.50;7.47;;;;;;;2.41;78.26;97542.25;4962340;28;20023;-72
2023/11/25 08:56:32;;;;;;;8.75;4.10;;;;;;;2.32;78.41;97538.19;4979794;28;20139;-71
2023/11/25 08:59:00;;;;;;;10.57;3.90;;;;;;;2.32;79.26;97528.38;4982305;28;20096;-69
2023/11/25 09:01:31;;;;;;;8.65;3.83;;;;;;;2.44;78.74;97534.69;4982217;28;20043;-73
2023/11/25 09:03:57;;;;;;;13.48;7.18;;;;;;;2.51;79.02;97532.84;4979589;28;20169;-71
2023/11/25 09:06:23;;;;;;;11.52;4.68;;;;;;;2.54;78.59;97527.09;4966166;28;20117;-72
2023/11/25 09:08:48;;;;;;;10.45;3.83;;;;;;;2.55;78.47;97519.94;4979480;28;20380;-71
2023/11/25 09:11:14;;;;;;;8.73;3.63;;;;;;;2.63;78.26;97522.38;4976720;28;20026;-70
2023/11/25 09:13:40;;;;;;;8.15;3.75;;;;;;;2.61;78.87;97505.81;4961886;28;20042;-70
2023/11/25 09:16:06;;;;;;;9.88;3.38;;;;;;;2.81;78.23;97522.47;4961968;28;20368;-71
2023/11/25 09:18:31;;;;;;;9.82;3.97;;;;;;;2.88;78.56;97517.94;4965458;28;20041;-71
2023/11/25 09:20:57;;;;;;;10.85;4.10;;;;;;;2.77;77.96;97489.38;4979310;28;20471;-70
2023/11/25 09:23:22;;;;;;;10.25;5.50;;;;;;;2.90;78.16;97504.44;4977017;28;20491;-72
2023/11/25 09:25:48;;;;;;;17.58;8.88;;;;;;;3.05;78.65;97502.31;4961105;28;20136;-70
2023/11/25 09:28:14;;;;;;;12.88;5.38;;;;;;;3.17;78.40;97500.59;4977773;28;20043;-71
2023/11/25 09:30:40;;;;;;;11.95;5.93;;;;;;;3.15;78.53;97502.66;4963194;28;20050;-71
2023/11/25 09:33:05;;;;;;;9.23;3.95;;;;;;;3.12;78.60;97503.91;4980429;28;20035;-72
2023/11/25 09:35:30;;;;;;;10.85;4.10;;;;;;;3.18;78.28;97483.59;4980849;28;20079;-71
2023/11/25 09:37:56;;;;;;;7.63;3.70;;;;;;;3.31;78.66;97492.28;4982951;28;20039;-72
2023/11/25 09:40:21;;;;;;;8.43;3.78;;;;;;;3.22;78.93;97480.28;4947577;28;20078;-72
2023/11/25 09:42:47;;;;;;;9.73;4.30;;;;;;;3.38;78.21;97481.63;4960778;28;20142;-73
2023/11/25 09:45:14;;;;;;;10.38;4.38;;;;;;;3.33;78.93;97476.97;4982874;28;20057;-72
2023/11/25 09:47:43;;;;;;;8.30;3.80;;;;;;;3.24;78.62;97464.13;4961693;28;20045;-71
2023/11/25 09:50:12;;;;;;;10.80;4.30;;;;;;;3.24;78.76;97469.44;4959886;28;20038;-71
2023/11/25 09:52:47;;;;;;;10.85;4.78;;;;;;;3.29;78.49;97475.72;4965216;28;20101;-71
2023/11/25 09:55:14;;;;;;;8.77;4.65;;;;;;;3.16;78.96;97467.03;4949204;28;20042;-72
2023/11/25 09:57:41;;;;;;;9.70;4.72;;;;;;;3.11;78.79;97480.16;4971604;28;20058;-71
2023/11/25 10:00:11;;;;;;;11.55;5.60;;;;;;;3.12;79.39;97476.50;4962908;28;20065;-71
2023/11/25 10:02:37;;;;;;;13.13;4.88;;;;;;;3.11;79.49;97469.53;4973172;28;20034;-74
2023/11/25 10:05:05;;;;;;;14.57;5.80;;;;;;;3.11;79.48;97458.88;4938059;28;20517;-69
2023/11/25 10:07:30;;;;;;;12.65;4.90;;;;;;;3.07;79.60;97466.50;4943489;28;20034;-71
2023/11/25 10:09:56;;;;;;;11.52;5.50;;;;;;;3.15;79.39;97470.75;4983128;28;20042;-72
2023/11/25 10:12:21;;;;;;;11.82;5.65;;;;;;;3.17;79.63;97458.03;4976040;28;20060;-71
2023/11/25 10:14:46;;;;;;;13.32;5.78;;;;;;;3.17;80.17;97447.41;4979102;28;20510;-71
2023/11/25 10:17:16;;;;;;;13.75;6.10;;;;;;;3.10;79.88;97452.78;4976675;28;20050;-72
2023/11/25 10:19:42;;;;;;;14.05;6.18;;;;;;;3.24;80.03;97448.16;4966026;28;20114;-71
2023/11/25 10:22:07;;;;;;;11.23;6.40;;;;;;;3.18;79.69;97439.19;4947945;28;20079;-71
2023/11/25 10:24:33;;;;;;;13.25;6.38;;;;;;;3.32;79.46;97442.56;4980800;28;20117;-71
2023/11/25 10:26:58;;;;;;;17.40;7.97;;;;;;;3.25;80.07;97428.50;4961650;28;20382;-72
2023/11/25 10:29:24;;;;;;;18.88;9.45;;;;;;;3.12;80.61;97444.56;4976202;28;20050;-71
2023/11/25 10:31:59;;;;;;;15.18;8.82;;;;;;;3.11;81.16;97438.44;4962424;28;20056;-71
2023/11/25 10:34:25;;;;;;;18.25;8.48;;;;;;;3.07;81.80;97429.25;4975584;28;20493;-73
2023/11/25 10:36:51;;;;;;;17.40;9.27;;;;;;;3.18;81.50;97439.19;4947709;28;20038;-73
2023/11/25 10:39:17;;;;;;;20.35;8.88;;;;;;;3.01;81.56;97405.38;4948353;28;20088;-69
2023/11/25 10:41:49;;;;;;;15.40;8.93;;;;;;;3.11;82.17;97411.00;4951327;28;20034;-71
2023/11/25 10:44:14;;;;;;;15.90;8.68;;;;;;;3.12;81.72;97407.31;4965909;28;20048;-72
2023/11/25 10:46:41;;;;;;;13.55;8.77;;;;;;;3.27;81.50;97407.81;4972890;28;20030;-71
2023/11/25 10:49:07;;;;;;;17.90;8.35;;;;;;;3.35;81.66;97403.03;4967178;28;20074;-72
2023/11/25 10:51:38;;;;;;;13.20;8.20;;;;;;;3.38;81.67;97391.16;4957338;28;20395;-71
2023/11/25 10:54:06;;;;;;;12.93;8.85;;;;;;;3.34;81.71;97400.59;4961874;28;20092;-71
2023/11/25 10:56:32;;;;;;;19.65;10.63;;;;;;;3.35;82.67;97380.94;4961247;28;20061;-71
2023/11/25 10:58:59;;;;;;;15.07;9.20;;;;;;;3.25;83.11;97391.25;4963630;28;20511;-71
2023/11/25 11:01:25;;;;;;;16.30;8.60;;;;;;;3.31;82.77;97375.22;4978580;28;20545;-72
2023/11/25 11:04:14;;;;;;;13.80;9.07;;;;;;;3.32;82.69;97360.06;4952299;29;20090;-72
2023/11/25 11:06:50;;;;;;;13.70;8.32;;;;;;;3.29;82.44;97366.66;4981048;28;20038;-71
2023/11/25 11:09:20;;;;;;;23.27;12.15;;;;;;;3.62;81.85;97355.69;4960886;28;20117;-71
2023/11/25 11:11:51;;;;;;;22.27;8.93;;;;;;;3.60;82.01;97360.41;4968242;28;20061;-71
2023/11/25 11:14:20;;;;;;;16.67;8.18;;;;;;;3.59;81.20;97361.47;4961808;28;20046;-71
2023/11/25 11:16:55;;;;;;;15.15;7.78;;;;;;;3.79;80.64;97350.59;4959150;28;20038;-72
2023/11/25 11:19:24;;;;;;;15.17;8.43;;;;;;;3.94;80.14;97338.53;4981544;28;20446;-71
2023/11/25 11:21:52;;;;;;;16.00;8.25;;;;;;;4.05;79.54;97348.44;4977624;28;20038;-72
2023/11/25 11:24:22;;;;;;;15.60;7.57;;;;;;;3.71;79.17;97324.28;4965865;28;20038;-72
2023/11/25 11:27:13;;;;;;;16.58;7.38;;;;;;;3.96;79.01;97356.94;4961394;28;20061;-71
2023/11/25 11:30:00;;;;;;;18.30;8.02;;;;;;;4.17;78.56;97349.31;4961246;28;20065;-72
2023/11/25 11:32:32;;;;;;;17.80;7.95;;;;;;;4.16;78.79;97353.00;4949286;28;20042;-71
2023/11/25 11:34:58;;;;;;;18.15;7.88;;;;;;;4.22;78.73;97341.44;4960172;28;20117;-70
2023/11/25 11:37:41;;;;;;;24.60;7.50;;;;;;;4.09;78.43;97344.28;4955304;28;20109;-71